San Angelo's Hourly Summary for Wednesday, March 15, 2017
Hour Temp
(f)
RH
(%)
Solar Rad.
(MJ/m2)
Rainfall
(in)
Wind
(mph)
3/15/2017 12:00 AM 62 60 0 0 6.98
3/15/2017 1:00 AM 60 64 0 0 5.43
3/15/2017 2:00 AM 59 64 0 0 3.46
3/15/2017 3:00 AM 55 71 0 0 1.78
3/15/2017 4:00 AM 55 71 0 0 1.84
3/15/2017 5:00 AM 52 73 0 0 0.39
3/15/2017 6:00 AM 50 79 0 0 0.48
3/15/2017 7:00 AM 50 81 0 0 2.06
3/15/2017 8:00 AM 48 82 0 0 3.77
3/15/2017 9:00 AM 48 84 0.32 0 5.72
3/15/2017 10:00 AM 50 78 0.67 0 6.12
3/15/2017 11:00 AM 54 68 0.98 0 5.27
3/15/2017 12:00 PM 58 66 1.36 0 7.21
3/15/2017 1:00 PM 58 77 0.91 0 5.04
3/15/2017 2:00 PM 63 63 2.4 0 3.71
3/15/2017 3:00 PM 68 50 2.18 0 5.23
3/15/2017 4:00 PM 71 45 2.67 0 7.96
3/15/2017 5:00 PM 73 45 2.16 0 9.39
3/15/2017 6:00 PM 73 43 1.46 0 9.13
3/15/2017 7:00 PM 73 44 0.71 0 9.85
3/15/2017 8:00 PM 70 46 0.12 0 11.49
3/15/2017 9:00 PM 65 60 0 0 9.21
3/15/2017 10:00 PM 65 64 0 0 7.46
3/15/2017 11:00 PM 65 64 0 0 7.24
Data Summary 60 64 15.94 0.00 5.68